createdAt,value
2023-03-12T00:00:11.442Z,0.73
2023-03-12T00:03:00.845Z,0.71
2023-03-12T00:05:31.595Z,0.66
2023-03-12T00:08:02.461Z,0.64
2023-03-12T00:10:31.221Z,0.67
2023-03-12T00:13:04.015Z,0.67
2023-03-12T00:15:39.164Z,0.67
2023-03-12T00:18:14.567Z,0.66
2023-03-12T00:20:54.181Z,0.67
2023-03-12T00:23:28.172Z,0.67
2023-03-12T00:26:05.013Z,0.66
2023-03-12T00:28:36.609Z,0.66
2023-03-12T00:31:20.298Z,0.62
2023-03-12T00:33:51.016Z,0.67
2023-03-12T00:36:26.090Z,0.67
2023-03-12T00:38:57.683Z,0.68
2023-03-12T00:41:27.770Z,0.70
2023-03-12T00:43:58.058Z,0.70
2023-03-12T00:46:28.125Z,0.72
2023-03-12T00:48:56.752Z,0.73
2023-03-12T00:51:27.909Z,0.74
2023-03-12T00:53:57.733Z,0.75
2023-03-12T00:56:26.820Z,0.76
2023-03-12T00:58:56.608Z,0.72
2023-03-12T01:01:25.736Z,0.79
2023-03-12T01:03:56.148Z,0.80
2023-03-12T01:06:24.943Z,0.81
2023-03-12T01:08:55.771Z,0.82
2023-03-12T01:11:24.564Z,0.82
2023-03-12T01:13:53.461Z,0.83
2023-03-12T01:16:22.795Z,0.83
2023-03-12T01:18:51.958Z,0.84
2023-03-12T01:21:20.941Z,0.86
2023-03-12T01:23:49.515Z,0.85
2023-03-12T01:26:19.357Z,0.86
2023-03-12T01:28:50.376Z,0.89
2023-03-12T01:31:20.187Z,0.90
2023-03-12T01:33:53.507Z,0.92
2023-03-12T01:36:28.428Z,0.93
2023-03-12T01:38:59.506Z,0.93
2023-03-12T01:41:34.809Z,0.92
2023-03-12T01:44:05.128Z,0.94
2023-03-12T01:46:46.766Z,0.95
2023-03-12T01:49:30.156Z,0.94
2023-03-12T01:52:06.223Z,0.95
2023-03-12T01:55:17.139Z,0.96
2023-03-12T01:57:59.194Z,0.96
2023-03-12T02:00:28.209Z,0.98
2023-03-12T02:03:00.850Z,0.99
2023-03-12T02:05:56.064Z,1.01
2023-03-12T02:08:26.588Z,1.03
2023-03-12T02:10:55.272Z,0.99
2023-03-12T02:13:25.306Z,0.93
2023-03-12T02:15:57.892Z,0.91
2023-03-12T02:18:29.110Z,0.90
2023-03-12T02:21:21.164Z,0.87
2023-03-12T02:24:08.673Z,0.88
2023-03-12T02:26:39.631Z,0.88
2023-03-12T02:29:10.966Z,0.87
2023-03-12T02:31:52.798Z,0.86
2023-03-12T02:34:22.872Z,0.86
2023-03-12T02:36:51.454Z,0.85
2023-03-12T02:39:19.961Z,0.85
2023-03-12T02:41:54.167Z,0.85
2023-03-12T02:44:26.228Z,0.88
2023-03-12T02:46:57.262Z,0.91
2023-03-12T02:49:30.143Z,0.93
2023-03-12T02:52:00.895Z,0.95
2023-03-12T02:54:32.165Z,0.97
2023-03-12T02:57:03.893Z,1.00
2023-03-12T02:59:32.894Z,1.01
2023-03-12T03:02:02.599Z,1.01
2023-03-12T03:04:32.199Z,1.04
2023-03-12T03:07:01.904Z,1.01
2023-03-12T03:09:30.487Z,1.07
2023-03-12T03:11:59.997Z,1.10
2023-03-12T03:14:29.391Z,1.12
2023-03-12T03:16:58.292Z,1.13
2023-03-12T03:19:26.985Z,1.15
2023-03-12T03:21:55.667Z,1.15
2023-03-12T03:24:24.442Z,1.17
2023-03-12T03:26:53.233Z,1.20
2023-03-12T03:29:22.132Z,1.24
2023-03-12T03:31:50.721Z,1.27
2023-03-12T03:34:19.505Z,1.30
2023-03-12T03:36:48.192Z,1.33
2023-03-12T03:39:18.808Z,1.37
2023-03-12T03:41:47.807Z,1.41
2023-03-12T03:44:17.929Z,1.44
2023-03-12T03:46:48.064Z,1.47
2023-03-12T03:49:17.565Z,1.46
2023-03-12T03:51:46.565Z,1.50
2023-03-12T03:54:17.082Z,1.53
2023-03-12T03:56:47.882Z,1.54
2023-03-12T03:59:16.680Z,1.54
2023-03-12T04:01:45.827Z,1.56
2023-03-12T04:04:15.815Z,1.55
2023-03-12T04:06:44.386Z,1.55
2023-03-12T04:09:13.108Z,1.56
2023-03-12T04:11:42.790Z,1.55
2023-03-12T04:14:13.618Z,1.54
2023-03-12T04:16:43.342Z,1.53
2023-03-12T04:19:13.365Z,1.53
2023-03-12T04:21:42.879Z,1.54
2023-03-12T04:24:16.433Z,1.53
2023-03-12T04:26:45.250Z,1.52
2023-03-12T04:29:15.588Z,1.52
2023-03-12T04:31:45.855Z,1.52
2023-03-12T04:34:15.224Z,1.51
2023-03-12T04:36:47.141Z,1.50
2023-03-12T04:39:20.704Z,1.51
2023-03-12T04:41:50.988Z,1.51
2023-03-12T04:44:19.678Z,1.49
2023-03-12T04:46:49.492Z,1.47
2023-03-12T04:49:20.865Z,1.45
2023-03-12T04:51:51.620Z,1.44
2023-03-12T04:54:23.439Z,1.43
2023-03-12T04:56:52.240Z,1.42
2023-03-12T04:59:22.655Z,1.42
2023-03-12T05:01:52.045Z,1.42
2023-03-12T05:04:25.558Z,1.41
2023-03-12T05:06:55.163Z,1.41
2023-03-12T05:09:23.937Z,1.41
2023-03-12T05:11:53.561Z,1.40
2023-03-12T05:14:24.964Z,1.42
2023-03-12T05:16:55.949Z,1.42
2023-03-12T05:19:25.157Z,1.44
2023-03-12T05:21:53.839Z,1.44
2023-03-12T05:24:22.886Z,1.45
2023-03-12T05:26:51.824Z,1.47
2023-03-12T05:29:22.682Z,1.49
2023-03-12T05:31:51.468Z,1.51
2023-03-12T05:34:19.922Z,1.53
2023-03-12T05:36:48.206Z,1.54
2023-03-12T05:39:20.064Z,1.55
2023-03-12T05:41:49.159Z,1.57
2023-03-12T05:44:19.201Z,1.60
2023-03-12T05:46:52.251Z,1.64
2023-03-12T05:49:24.634Z,1.67
2023-03-12T05:51:53.526Z,1.70
2023-03-12T05:54:23.016Z,1.73
2023-03-12T05:56:52.842Z,1.75
2023-03-12T05:59:21.929Z,1.78
2023-03-12T06:01:50.653Z,1.83
2023-03-12T06:04:19.082Z,1.89
2023-03-12T06:06:48.106Z,1.92
2023-03-12T06:09:16.676Z,2.02
2023-03-12T06:11:44.951Z,2.08
2023-03-12T06:14:13.636Z,2.12
2023-03-12T06:16:42.190Z,2.17
2023-03-12T06:19:14.416Z,2.22
2023-03-12T06:21:44.796Z,2.26
2023-03-12T06:24:13.705Z,2.32
2023-03-12T06:26:49.206Z,2.40
2023-03-12T06:29:17.725Z,2.49
2023-03-12T06:31:47.370Z,2.58
2023-03-12T06:34:17.001Z,2.64
2023-03-12T06:36:45.530Z,2.73
2023-03-12T06:39:13.814Z,2.81
2023-03-12T06:41:42.438Z,2.90
2023-03-12T06:44:11.081Z,3.02
2023-03-12T06:46:39.382Z,3.08
2023-03-12T06:49:08.148Z,3.09
2023-03-12T06:51:37.224Z,3.09
2023-03-12T06:54:06.055Z,3.12
2023-03-12T06:56:34.508Z,3.18
2023-03-12T06:59:03.087Z,3.20
2023-03-12T07:01:33.044Z,3.24
2023-03-12T07:04:02.807Z,3.27
2023-03-12T07:06:31.590Z,3.19
2023-03-12T07:09:00.111Z,3.21
2023-03-12T07:11:29.105Z,3.23
2023-03-12T07:13:58.092Z,3.27
2023-03-12T07:16:28.586Z,3.33
2023-03-12T07:18:59.366Z,3.38
2023-03-12T07:21:30.244Z,3.41
2023-03-12T07:24:01.156Z,3.45
2023-03-12T07:26:30.425Z,3.51
2023-03-12T07:28:59.309Z,3.54
2023-03-12T07:31:28.524Z,3.54
2023-03-12T07:33:57.252Z,3.53
2023-03-12T07:36:26.336Z,3.54
2023-03-12T07:38:55.500Z,3.56
2023-03-12T07:41:24.485Z,3.58
2023-03-12T07:43:53.837Z,3.60
2023-03-12T07:46:22.397Z,3.59
2023-03-12T07:48:51.018Z,3.60
2023-03-12T07:51:19.621Z,3.64
2023-03-12T07:53:49.067Z,3.67
2023-03-12T07:56:17.910Z,3.69
2023-03-12T07:58:47.395Z,3.69
2023-03-12T08:01:17.486Z,3.69
2023-03-12T08:03:46.639Z,3.71
2023-03-12T08:06:15.771Z,3.72
2023-03-12T08:08:46.552Z,3.73
2023-03-12T08:11:17.719Z,3.72
2023-03-12T08:13:46.592Z,3.73
2023-03-12T08:16:15.917Z,3.72
2023-03-12T08:18:44.700Z,3.72
2023-03-12T08:21:16.456Z,3.72
2023-03-12T08:23:45.247Z,3.76
2023-03-12T08:26:14.646Z,3.80
2023-03-12T08:28:43.337Z,3.81
2023-03-12T08:31:12.875Z,3.79
2023-03-12T08:33:43.866Z,3.81
2023-03-12T08:36:13.386Z,3.84
2023-03-12T08:38:42.377Z,3.85
2023-03-12T08:41:11.272Z,3.87
2023-03-12T08:43:40.019Z,3.88
2023-03-12T08:46:12.182Z,3.87
2023-03-12T08:48:41.174Z,3.89
2023-03-12T08:51:10.694Z,3.91
2023-03-12T08:53:39.788Z,3.96
2023-03-12T08:56:08.982Z,4.01
2023-03-12T08:58:38.266Z,4.06
2023-03-12T09:01:14.092Z,4.14
2023-03-12T09:03:46.667Z,4.20
2023-03-12T09:06:17.901Z,4.24
2023-03-12T09:08:52.262Z,4.28
2023-03-12T09:11:22.534Z,4.30
2023-03-12T09:14:28.040Z,4.30
2023-03-12T09:16:47.308Z,4.39
2023-03-12T09:19:17.914Z,4.42
2023-03-12T09:21:48.850Z,4.51
2023-03-12T09:24:18.456Z,4.62
2023-03-12T09:26:48.368Z,4.80
2023-03-12T09:29:17.355Z,4.97
2023-03-12T09:31:48.455Z,5.14
2023-03-12T09:34:17.081Z,5.28
2023-03-12T09:36:47.569Z,5.31
2023-03-12T09:39:17.722Z,5.32
2023-03-12T09:41:54.941Z,5.37
2023-03-12T09:44:42.366Z,5.43
2023-03-12T09:47:43.223Z,5.56
2023-03-12T09:50:16.148Z,5.68
2023-03-12T09:52:54.967Z,5.72
2023-03-12T09:55:28.918Z,5.79
2023-03-12T09:58:02.888Z,5.82
2023-03-12T10:00:38.600Z,5.90
2023-03-12T10:03:20.096Z,6.01
2023-03-12T10:06:03.119Z,6.04
2023-03-12T10:08:41.387Z,6.04
2023-03-12T10:11:24.449Z,6.08
2023-03-12T10:14:11.023Z,6.07
2023-03-12T10:17:29.854Z,6.07
2023-03-12T10:20:30.470Z,6.16
2023-03-12T10:23:14.504Z,6.10
2023-03-12T10:26:05.929Z,6.06
2023-03-12T10:28:50.599Z,6.05
2023-03-12T10:31:29.843Z,6.07
2023-03-12T10:34:01.930Z,6.15
2023-03-12T10:36:40.116Z,6.24
2023-03-12T10:39:18.042Z,6.36
2023-03-12T10:41:49.623Z,6.47
2023-03-12T10:44:25.812Z,6.57
2023-03-12T10:47:24.815Z,6.65
2023-03-12T10:49:53.792Z,6.66
2023-03-12T10:52:23.906Z,6.68
2023-03-12T10:54:53.852Z,6.71
2023-03-12T10:57:38.803Z,6.78
2023-03-12T11:00:12.646Z,6.88
2023-03-12T11:02:46.216Z,7.02
2023-03-12T11:05:34.786Z,7.14
2023-03-12T11:08:22.341Z,7.32
2023-03-12T11:10:53.504Z,7.44
2023-03-12T11:13:41.600Z,7.47
2023-03-12T11:16:17.876Z,7.51
2023-03-12T11:19:00.285Z,7.51
2023-03-12T11:21:33.744Z,7.48
2023-03-12T11:24:08.574Z,7.46
2023-03-12T11:26:50.898Z,7.42
2023-03-12T11:29:30.713Z,7.37
2023-03-12T11:32:11.436Z,7.36
2023-03-12T11:34:43.540Z,7.47
2023-03-12T11:37:26.597Z,7.58
2023-03-12T11:40:13.423Z,7.62
2023-03-12T11:43:14.823Z,7.57
2023-03-12T11:46:19.827Z,7.49
2023-03-12T11:49:19.809Z,7.44
2023-03-12T11:52:03.915Z,7.49
2023-03-12T11:54:41.327Z,7.61
2023-03-12T11:57:43.233Z,7.74
2023-03-12T12:00:17.178Z,7.89
2023-03-12T12:03:08.635Z,7.93
2023-03-12T12:05:50.753Z,7.90
2023-03-12T12:08:29.385Z,7.81
2023-03-12T12:11:23.421Z,7.89
2023-03-12T12:14:13.830Z,8.00
2023-03-12T12:17:01.815Z,8.02
2023-03-12T12:20:10.147Z,8.01
2023-03-12T12:23:10.829Z,8.11
2023-03-12T12:25:59.107Z,8.22
2023-03-12T12:28:55.102Z,8.19
2023-03-12T12:31:31.062Z,8.23
2023-03-12T12:34:29.656Z,8.24
2023-03-12T12:37:31.591Z,8.35
2023-03-12T12:40:31.677Z,8.43
2023-03-12T12:43:27.080Z,8.49
2023-03-12T12:46:01.233Z,8.51
2023-03-12T12:48:37.034Z,8.60
2023-03-12T12:51:08.999Z,8.65
2023-03-12T12:54:09.241Z,8.72
2023-03-12T12:57:01.881Z,8.81
2023-03-12T12:59:41.034Z,8.82
2023-03-12T13:02:22.211Z,8.76
2023-03-12T13:04:56.164Z,8.70
2023-03-12T13:07:27.932Z,8.69
2023-03-12T13:09:58.826Z,8.69
2023-03-12T13:12:47.796Z,8.67
2023-03-12T13:15:29.303Z,8.64
2023-03-12T13:18:10.180Z,8.64
2023-03-12T13:20:54.630Z,8.73
2023-03-12T13:23:26.574Z,8.74
2023-03-12T13:26:01.797Z,8.75
2023-03-12T13:28:36.399Z,8.79
2023-03-12T13:31:25.960Z,8.90
2023-03-12T13:33:59.827Z,8.88
2023-03-12T13:36:33.852Z,8.88
2023-03-12T13:39:08.566Z,8.94
2023-03-12T13:41:45.891Z,8.90
2023-03-12T13:44:27.071Z,8.89
2023-03-12T13:47:23.210Z,8.88
2023-03-12T13:49:59.174Z,8.87
2023-03-12T13:52:47.307Z,8.93
2023-03-12T13:55:33.072Z,8.95
2023-03-12T13:58:09.545Z,8.98
2023-03-12T14:00:55.347Z,9.02
2023-03-12T14:03:49.840Z,9.08
2023-03-12T14:06:21.712Z,9.14
2023-03-12T14:08:58.084Z,9.17
2023-03-12T14:11:34.244Z,9.14
2023-03-12T14:14:18.305Z,9.18
2023-03-12T14:16:56.486Z,9.25
2023-03-12T14:19:28.865Z,9.30
2023-03-12T14:22:07.726Z,9.35
2023-03-12T14:24:41.977Z,9.39
2023-03-12T14:27:19.108Z,9.39
2023-03-12T14:30:10.848Z,9.32
2023-03-12T14:32:40.872Z,9.25
2023-03-12T14:35:15.732Z,9.23
2023-03-12T14:37:54.416Z,9.15
2023-03-12T14:40:39.918Z,9.05
2023-03-12T14:43:27.177Z,8.94
2023-03-12T14:45:59.086Z,8.82
2023-03-12T14:48:34.513Z,8.69
2023-03-12T14:51:06.817Z,8.58
2023-03-12T14:53:42.188Z,8.52
2023-03-12T14:56:35.612Z,8.43
2023-03-12T14:59:31.447Z,8.36
2023-03-12T15:02:21.269Z,8.29
2023-03-12T15:04:56.326Z,8.23
2023-03-12T15:07:33.821Z,8.14
2023-03-12T15:10:06.532Z,8.07
2023-03-12T15:12:38.019Z,8.03
2023-03-12T15:15:09.973Z,8.02
2023-03-12T15:17:39.183Z,7.97
2023-03-12T15:20:15.121Z,7.89
2023-03-12T15:22:44.938Z,7.84
2023-03-12T15:25:34.421Z,7.79
2023-03-12T15:28:10.886Z,7.73
2023-03-12T15:30:40.910Z,7.70
2023-03-12T15:33:15.839Z,7.64
2023-03-12T15:36:24.054Z,7.57
2023-03-12T15:39:02.568Z,7.45
2023-03-12T15:41:51.732Z,7.38
2023-03-12T15:44:26.393Z,7.35
2023-03-12T15:47:11.011Z,7.30
2023-03-12T15:49:40.264Z,7.24
2023-03-12T15:52:24.924Z,7.22
2023-03-12T15:55:26.974Z,7.17
2023-03-12T15:57:57.410Z,7.11
2023-03-12T16:00:42.080Z,7.08
2023-03-12T16:03:18.644Z,7.06
2023-03-12T16:05:50.503Z,7.04
2023-03-12T16:08:29.845Z,7.00
2023-03-12T16:10:58.645Z,6.98
2023-03-12T16:13:31.499Z,6.96
2023-03-12T16:16:00.318Z,6.94
2023-03-12T16:18:28.742Z,6.89
2023-03-12T16:20:57.495Z,6.86
2023-03-12T16:23:26.388Z,6.85
2023-03-12T16:25:57.061Z,6.84
2023-03-12T16:28:26.724Z,6.82
2023-03-12T16:30:55.219Z,6.80
2023-03-12T16:33:25.028Z,6.75
2023-03-12T16:35:54.637Z,6.73
2023-03-12T16:38:24.153Z,6.72
2023-03-12T16:40:53.875Z,6.67
2023-03-12T16:43:25.406Z,6.65
2023-03-12T16:45:54.532Z,6.64
2023-03-12T16:48:26.873Z,6.63
2023-03-12T16:50:58.015Z,6.64
2023-03-12T16:53:27.703Z,6.62
2023-03-12T16:55:59.963Z,6.59
2023-03-12T16:58:29.574Z,6.57
2023-03-12T17:01:00.151Z,6.56
2023-03-12T17:03:38.386Z,6.55
2023-03-12T17:06:08.332Z,6.52
2023-03-12T17:08:37.510Z,6.49
2023-03-12T17:11:20.609Z,6.45
2023-03-12T17:14:00.550Z,6.48
2023-03-12T17:16:29.901Z,6.48
2023-03-12T17:18:58.660Z,6.47
2023-03-12T17:21:27.140Z,6.47
2023-03-12T17:23:56.690Z,6.47
2023-03-12T17:26:25.586Z,6.47
2023-03-12T17:28:54.231Z,6.48
2023-03-12T17:31:25.081Z,6.50
2023-03-12T17:33:54.278Z,6.51
2023-03-12T17:36:23.731Z,6.52
2023-03-12T17:38:53.110Z,6.52
2023-03-12T17:41:26.799Z,6.52
2023-03-12T17:43:58.961Z,6.53
2023-03-12T17:46:29.452Z,6.55
2023-03-12T17:48:58.396Z,6.55
2023-03-12T17:51:27.176Z,6.54
2023-03-12T17:53:57.000Z,6.53
2023-03-12T17:56:26.357Z,6.50
2023-03-12T17:58:55.506Z,6.48
2023-03-12T18:01:26.650Z,6.46
2023-03-12T18:03:55.846Z,6.44
2023-03-12T18:06:25.477Z,6.42
2023-03-12T18:08:54.350Z,6.39
2023-03-12T18:11:23.976Z,6.37
2023-03-12T18:13:53.058Z,6.39
2023-03-12T18:16:24.142Z,6.39
2023-03-12T18:18:53.189Z,6.40
2023-03-12T18:21:22.026Z,6.40
2023-03-12T18:23:51.194Z,6.41
2023-03-12T18:26:22.368Z,6.43
2023-03-12T18:28:54.218Z,6.45
2023-03-12T18:31:23.784Z,6.47
2023-03-12T18:33:53.724Z,6.50
2023-03-12T18:36:22.840Z,6.53
2023-03-12T18:38:54.086Z,6.54
2023-03-12T18:41:22.868Z,6.54
2023-03-12T18:43:53.971Z,6.53
2023-03-12T18:46:24.405Z,6.52
2023-03-12T18:48:53.980Z,6.50
2023-03-12T18:51:23.271Z,6.50
2023-03-12T18:53:52.154Z,6.49
2023-03-12T18:56:23.943Z,6.50
2023-03-12T18:58:53.486Z,6.50
2023-03-12T19:01:23.094Z,6.50
2023-03-12T19:03:53.206Z,6.48
2023-03-12T19:06:23.181Z,6.47
2023-03-12T19:08:53.168Z,6.45
2023-03-12T19:11:23.213Z,6.44
2023-03-12T19:13:54.022Z,6.43
2023-03-12T19:16:25.002Z,6.42
2023-03-12T19:18:55.833Z,6.43
2023-03-12T19:21:26.572Z,6.43
2023-03-12T19:23:58.398Z,6.43
2023-03-12T19:26:27.858Z,6.48
2023-03-12T19:28:58.202Z,6.53
2023-03-12T19:31:28.815Z,6.55
2023-03-12T19:33:59.972Z,6.56
2023-03-12T19:36:30.605Z,6.56
2023-03-12T19:39:02.417Z,6.53
2023-03-12T19:41:36.765Z,6.48
2023-03-12T19:44:07.126Z,6.48
2023-03-12T19:46:39.495Z,6.47
2023-03-12T19:49:08.542Z,6.49
2023-03-12T19:51:40.434Z,6.50
2023-03-12T19:54:10.055Z,6.51
2023-03-12T19:56:40.411Z,6.51
2023-03-12T19:59:10.627Z,6.52
2023-03-12T20:01:43.392Z,6.54
2023-03-12T20:04:13.677Z,6.58
2023-03-12T20:06:43.225Z,6.59
2023-03-12T20:09:12.984Z,6.63
2023-03-12T20:11:43.690Z,6.67
2023-03-12T20:14:13.369Z,6.74
2023-03-12T20:16:42.735Z,6.78
2023-03-12T20:19:12.071Z,6.82
2023-03-12T20:21:42.181Z,6.86
2023-03-12T20:24:14.278Z,6.89
2023-03-12T20:26:43.393Z,6.89
2023-03-12T20:29:13.112Z,6.93
2023-03-12T20:31:43.730Z,6.98
2023-03-12T20:34:14.064Z,6.98
2023-03-12T20:36:45.662Z,6.99
2023-03-12T20:39:16.295Z,6.99
2023-03-12T20:41:47.025Z,6.99
2023-03-12T20:44:17.897Z,6.98
2023-03-12T20:46:49.196Z,6.96
2023-03-12T20:49:21.059Z,6.95
2023-03-12T20:51:50.693Z,6.96
2023-03-12T20:54:22.880Z,6.96
2023-03-12T20:56:52.335Z,6.95
2023-03-12T20:59:25.738Z,6.93
2023-03-12T21:01:56.111Z,6.92
2023-03-12T21:04:26.020Z,6.93
2023-03-12T21:06:56.948Z,6.91
2023-03-12T21:09:28.246Z,6.86
2023-03-12T21:11:59.424Z,6.85
2023-03-12T21:14:29.435Z,6.81
2023-03-12T21:16:59.496Z,6.78
2023-03-12T21:19:30.601Z,6.75
2023-03-12T21:22:00.584Z,6.74
2023-03-12T21:24:34.092Z,6.70
2023-03-12T21:27:03.639Z,6.73
2023-03-12T21:29:33.241Z,6.75
2023-03-12T21:32:03.188Z,6.77
2023-03-12T21:34:34.227Z,6.80
2023-03-12T21:37:04.972Z,6.81
2023-03-12T21:39:35.765Z,6.83
2023-03-12T21:42:04.889Z,6.83
2023-03-12T21:44:38.066Z,6.84
2023-03-12T21:47:07.279Z,6.86
2023-03-12T21:49:36.562Z,6.86
2023-03-12T21:52:05.585Z,6.88
2023-03-12T21:54:35.592Z,6.89
2023-03-12T21:57:05.420Z,6.89
2023-03-12T21:59:34.296Z,6.87
2023-03-12T22:02:02.781Z,6.88
2023-03-12T22:04:32.327Z,6.90
2023-03-12T22:07:00.876Z,6.91
2023-03-12T22:09:38.908Z,6.91
2023-03-12T22:12:07.787Z,6.88
2023-03-12T22:14:36.145Z,6.89
2023-03-12T22:17:04.675Z,6.89
2023-03-12T22:19:33.561Z,6.89
2023-03-12T22:22:02.132Z,6.89
2023-03-12T22:24:30.904Z,6.88
2023-03-12T22:26:59.285Z,6.90
2023-03-12T22:29:27.986Z,6.91
2023-03-12T22:31:56.564Z,6.94
2023-03-12T22:34:24.938Z,6.98
2023-03-12T22:36:53.229Z,7.02
2023-03-12T22:39:21.500Z,7.04
2023-03-12T22:41:53.878Z,7.05
2023-03-12T22:44:22.484Z,7.07
2023-03-12T22:46:52.137Z,7.07
2023-03-12T22:49:20.458Z,7.06
2023-03-12T22:51:48.628Z,7.08
2023-03-12T22:54:17.057Z,7.10
2023-03-12T22:56:45.505Z,7.12
2023-03-12T22:59:13.985Z,7.12
2023-03-12T23:01:42.504Z,7.16
2023-03-12T23:04:11.104Z,7.18
2023-03-12T23:06:40.140Z,7.19
2023-03-12T23:09:08.523Z,7.24
2023-03-12T23:11:36.839Z,7.24
2023-03-12T23:14:05.398Z,7.19
2023-03-12T23:16:34.054Z,7.14
2023-03-12T23:19:02.704Z,7.13
2023-03-12T23:21:31.172Z,7.12
2023-03-12T23:24:00.058Z,7.12
2023-03-12T23:26:28.939Z,7.15
2023-03-12T23:28:59.027Z,7.18
2023-03-12T23:31:28.789Z,7.19
2023-03-12T23:33:58.626Z,7.21
2023-03-12T23:36:27.492Z,7.24
2023-03-12T23:38:56.344Z,7.26
2023-03-12T23:41:31.002Z,7.27
2023-03-12T23:43:59.799Z,7.29
2023-03-12T23:46:28.494Z,7.29
2023-03-12T23:48:57.592Z,7.27
2023-03-12T23:51:29.570Z,7.27
2023-03-12T23:54:00.620Z,7.27
2023-03-12T23:56:34.015Z,7.29
2023-03-12T23:59:02.885Z,7.24
